createdAt,value
2022-12-03T00:01:19.490Z,28.27
2022-12-03T00:04:21.088Z,25.73
2022-12-03T00:07:22.643Z,23.75
2022-12-03T00:10:24.296Z,24.80
2022-12-03T00:13:25.879Z,27.20
2022-12-03T00:16:27.558Z,27.58
2022-12-03T00:19:29.247Z,27.80
2022-12-03T00:22:30.781Z,30.13
2022-12-03T00:25:32.426Z,24.85
2022-12-03T00:28:33.969Z,26.92
2022-12-03T00:31:35.618Z,27.15
2022-12-03T00:34:37.289Z,27.35
2022-12-03T00:37:38.845Z,29.75
2022-12-03T00:40:40.365Z,25.53
2022-12-03T00:43:41.953Z,28.40
2022-12-03T00:46:43.580Z,28.48
2022-12-03T00:49:45.180Z,26.27
2022-12-03T00:52:46.836Z,26.02
2022-12-03T00:55:50.627Z,27.58
2022-12-03T00:58:52.198Z,28.38
2022-12-03T01:01:53.834Z,27.63
2022-12-03T01:04:55.761Z,29.50
2022-12-03T01:07:57.685Z,31.02
2022-12-03T01:10:59.245Z,29.40
2022-12-03T01:14:00.827Z,32.30
2022-12-03T01:17:02.391Z,29.20
2022-12-03T01:20:05.444Z,31.83
2022-12-03T01:23:07.195Z,29.25
2022-12-03T01:26:08.756Z,31.70
2022-12-03T01:29:10.701Z,29.10
2022-12-03T01:32:19.329Z,31.08
2022-12-03T01:35:20.919Z,37.55
2022-12-03T01:38:22.470Z,28.45
2022-12-03T01:41:25.065Z,28.63
2022-12-03T01:44:31.192Z,28.23
2022-12-03T01:47:35.997Z,31.75
2022-12-03T01:50:38.549Z,28.83
2022-12-03T01:53:40.243Z,29.75
2022-12-03T01:56:41.909Z,29.63
2022-12-03T01:59:43.452Z,29.48
2022-12-03T02:02:46.671Z,24.02
2022-12-03T02:05:48.263Z,28.10
2022-12-03T02:08:49.922Z,29.50
2022-12-03T02:11:52.303Z,27.90
2022-12-03T02:14:54.770Z,30.60
2022-12-03T02:17:56.948Z,29.38
2022-12-03T02:21:13.656Z,28.50
2022-12-03T02:24:34.101Z,29.83
2022-12-03T02:27:35.950Z,29.80
2022-12-03T02:30:37.920Z,30.15
2022-12-03T02:33:39.720Z,32.55
2022-12-03T02:36:41.300Z,33.65
2022-12-03T02:39:49.070Z,31.63
2022-12-03T02:42:55.395Z,28.30
2022-12-03T02:46:00.206Z,32.97
2022-12-03T02:49:03.234Z,26.23
2022-12-03T02:52:04.880Z,31.57
2022-12-03T02:55:07.564Z,28.13
2022-12-03T02:58:11.035Z,29.70
2022-12-03T03:01:13.026Z,30.83
2022-12-03T03:04:15.157Z,35.83
2022-12-03T03:07:17.006Z,34.13
2022-12-03T03:10:23.001Z,35.30
2022-12-03T03:13:24.632Z,33.57
2022-12-03T03:16:27.099Z,36.42
2022-12-03T03:19:30.300Z,33.95
2022-12-03T03:22:36.966Z,40.57
2022-12-03T03:25:40.884Z,37.05
2022-12-03T03:28:46.624Z,38.88
2022-12-03T03:31:48.511Z,35.28
2022-12-03T03:34:50.377Z,33.92
2022-12-03T03:37:53.715Z,35.08
2022-12-03T03:40:57.462Z,35.78
2022-12-03T03:43:59.647Z,38.47
2022-12-03T03:47:02.075Z,36.50
2022-12-03T03:50:04.732Z,35.30
2022-12-03T03:53:06.751Z,33.53
2022-12-03T03:56:09.636Z,31.30
2022-12-03T03:59:13.559Z,35.90
2022-12-03T04:02:24.238Z,34.15
2022-12-03T04:05:26.195Z,31.17
2022-12-03T04:08:27.767Z,37.33
2022-12-03T04:11:47.859Z,31.27
2022-12-03T04:14:49.423Z,31.43
2022-12-03T04:18:10.294Z,32.80
2022-12-03T04:21:36.235Z,30.38
2022-12-03T04:24:37.770Z,36.47
2022-12-03T04:27:57.866Z,33.90
2022-12-03T04:30:59.482Z,32.65
2022-12-03T04:34:19.883Z,34.88
2022-12-03T04:37:22.042Z,27.85
2022-12-03T04:40:42.312Z,33.88
2022-12-03T04:44:02.330Z,30.10
2022-12-03T04:47:23.444Z,31.87
2022-12-03T04:50:25.015Z,33.20
2022-12-03T04:53:26.543Z,32.70
2022-12-03T04:56:28.065Z,28.10
2022-12-03T04:59:30.116Z,32.58
2022-12-03T05:02:32.632Z,33.50
2022-12-03T05:05:34.413Z,33.05
2022-12-03T05:08:36.325Z,30.85
2022-12-03T05:11:38.502Z,30.33
2022-12-03T05:14:40.010Z,26.30
2022-12-03T05:17:41.570Z,32.80
2022-12-03T05:20:45.868Z,26.27
2022-12-03T05:23:52.976Z,26.98
2022-12-03T05:26:54.499Z,25.77
2022-12-03T05:29:56.037Z,26.20
2022-12-03T05:32:57.976Z,27.00
2022-12-03T05:35:59.790Z,24.25
2022-12-03T05:39:01.509Z,23.90
2022-12-03T05:42:22.355Z,26.58
2022-12-03T05:45:25.142Z,22.23
2022-12-03T05:48:26.681Z,27.17
2022-12-03T05:51:28.224Z,24.38
2022-12-03T05:54:32.099Z,27.00
2022-12-03T05:57:33.658Z,24.27
2022-12-03T06:00:42.489Z,22.65
2022-12-03T06:03:44.648Z,25.13
2022-12-03T06:06:46.249Z,23.60
2022-12-03T06:09:50.152Z,26.02
2022-12-03T06:12:52.254Z,20.50
2022-12-03T06:15:56.613Z,21.88
2022-12-03T06:18:58.166Z,20.23
2022-12-03T06:21:59.731Z,19.80
2022-12-03T06:25:06.639Z,20.77
2022-12-03T06:28:09.105Z,22.13
2022-12-03T06:31:10.669Z,23.33
2022-12-03T06:34:12.250Z,22.80
2022-12-03T06:37:14.049Z,23.75
2022-12-03T06:40:16.719Z,26.77
2022-12-03T06:43:18.287Z,20.83
2022-12-03T06:46:19.981Z,20.98
2022-12-03T06:49:21.579Z,24.07
2022-12-03T06:52:23.082Z,24.75
2022-12-03T06:55:24.606Z,25.30
2022-12-03T06:58:26.152Z,27.10
2022-12-03T07:01:27.716Z,23.33
2022-12-03T07:04:29.310Z,23.13
2022-12-03T07:07:30.993Z,21.88
2022-12-03T07:10:34.351Z,24.73
2022-12-03T07:13:35.889Z,23.80
2022-12-03T07:16:38.428Z,23.67
2022-12-03T07:19:40.865Z,24.23
2022-12-03T07:22:42.756Z,26.73
2022-12-03T07:25:44.265Z,26.85
2022-12-03T07:28:49.743Z,25.67
2022-12-03T07:31:55.499Z,25.38
2022-12-03T07:35:05.637Z,23.23
2022-12-03T07:38:07.421Z,25.25
2022-12-03T07:41:09.067Z,21.65
2022-12-03T07:44:14.280Z,25.33
2022-12-03T07:47:17.510Z,25.23
2022-12-03T07:50:19.191Z,22.27
2022-12-03T07:53:21.081Z,24.70
2022-12-03T07:56:22.835Z,22.48
2022-12-03T07:59:24.378Z,23.80
2022-12-03T08:02:26.057Z,23.13
2022-12-03T08:05:29.563Z,27.45
2022-12-03T08:08:31.209Z,21.92
2022-12-03T08:11:33.712Z,25.00
2022-12-03T08:14:35.733Z,24.15
2022-12-03T08:17:39.217Z,26.55
2022-12-03T08:20:43.033Z,24.57
2022-12-03T08:23:44.974Z,24.05
2022-12-03T08:26:49.537Z,24.77
2022-12-03T08:29:58.290Z,24.97
2022-12-03T08:33:00.493Z,30.77
2022-12-03T08:36:12.644Z,27.85
2022-12-03T08:39:33.804Z,26.10
2022-12-03T08:42:42.192Z,31.02
2022-12-03T08:45:44.858Z,23.92
2022-12-03T08:48:49.087Z,25.98
2022-12-03T08:51:57.305Z,21.10
2022-12-03T08:55:00.354Z,23.35
2022-12-03T08:58:33.085Z,20.00
2022-12-03T09:01:48.150Z,16.57
2022-12-03T09:04:54.783Z,17.30
2022-12-03T09:07:56.674Z,19.30
2022-12-03T09:10:58.258Z,18.23
2022-12-03T09:13:59.807Z,19.25
2022-12-03T09:17:01.445Z,19.08
2022-12-03T09:20:04.808Z,21.88
2022-12-03T09:23:06.776Z,19.97
2022-12-03T09:26:09.476Z,19.63
2022-12-03T09:29:12.562Z,19.67
2022-12-03T09:32:18.352Z,20.03
2022-12-03T09:35:20.410Z,20.88
2022-12-03T09:38:21.994Z,22.95
2022-12-03T09:41:24.992Z,22.80
2022-12-03T09:44:33.421Z,22.17
2022-12-03T09:47:35.473Z,23.92
2022-12-03T09:50:41.856Z,22.63
2022-12-03T09:53:43.531Z,25.80
2022-12-03T09:56:45.052Z,26.65
2022-12-03T09:59:47.049Z,25.52
2022-12-03T10:02:49.603Z,29.17
2022-12-03T10:05:51.609Z,27.67
2022-12-03T10:08:55.598Z,24.52
2022-12-03T10:11:58.984Z,25.58
2022-12-03T10:15:00.560Z,31.33
2022-12-03T10:18:18.008Z,25.83
2022-12-03T10:21:22.838Z,24.75
2022-12-03T10:24:25.500Z,29.80
2022-12-03T10:27:30.861Z,29.40
2022-12-03T10:30:32.842Z,27.48
2022-12-03T10:33:37.435Z,28.63
2022-12-03T10:36:38.980Z,27.42
2022-12-03T10:39:56.469Z,32.17
2022-12-03T10:43:19.548Z,29.63
2022-12-03T10:46:22.857Z,27.27
2022-12-03T10:49:24.479Z,29.13
2022-12-03T10:52:26.329Z,32.05
2022-12-03T10:55:33.809Z,29.10
2022-12-03T10:58:37.203Z,27.63
2022-12-03T11:01:38.825Z,27.77
2022-12-03T11:04:41.449Z,27.10
2022-12-03T11:07:43.914Z,27.70
2022-12-03T11:10:55.441Z,31.83
2022-12-03T11:13:59.150Z,27.95
2022-12-03T11:17:07.893Z,28.55
2022-12-03T11:20:24.707Z,30.65
2022-12-03T11:23:44.721Z,32.40
2022-12-03T11:26:46.194Z,31.97
2022-12-03T11:29:54.475Z,31.20
2022-12-03T11:33:00.485Z,30.40
2022-12-03T11:36:04.743Z,28.70
2022-12-03T11:39:08.294Z,27.73
2022-12-03T11:42:25.344Z,28.95
2022-12-03T11:45:33.574Z,28.33
2022-12-03T11:48:44.320Z,29.00
2022-12-03T11:51:45.954Z,31.60
2022-12-03T11:54:51.981Z,31.83
2022-12-03T11:58:01.963Z,30.30
2022-12-03T12:01:06.751Z,34.78
2022-12-03T12:04:28.018Z,27.63
2022-12-03T12:07:36.888Z,28.77
2022-12-03T12:10:39.583Z,32.78
2022-12-03T12:13:41.138Z,30.73
2022-12-03T12:16:51.773Z,26.73
2022-12-03T12:20:26.289Z,30.98
2022-12-03T12:23:28.997Z,28.15
2022-12-03T12:26:30.620Z,31.55
2022-12-03T12:29:32.799Z,31.63
2022-12-03T12:32:44.224Z,28.35
2022-12-03T12:35:45.966Z,29.60
2022-12-03T12:38:47.517Z,29.03
2022-12-03T12:41:50.410Z,28.88
2022-12-03T12:44:52.547Z,27.15
2022-12-03T12:48:03.944Z,24.77
2022-12-03T12:51:13.426Z,31.10
2022-12-03T12:54:17.404Z,32.15
2022-12-03T12:57:22.498Z,39.10
2022-12-03T13:00:24.493Z,43.30
2022-12-03T13:03:29.409Z,53.20
2022-12-03T13:06:32.119Z,37.78
2022-12-03T13:09:33.724Z,35.77
2022-12-03T13:12:36.468Z,37.35
2022-12-03T13:15:45.012Z,38.70
2022-12-03T13:18:49.837Z,31.08
2022-12-03T13:21:55.478Z,28.85
2022-12-03T13:25:04.593Z,27.48
2022-12-03T13:28:07.924Z,32.13
2022-12-03T13:31:22.221Z,27.10
2022-12-03T13:34:26.651Z,26.67
2022-12-03T13:37:31.224Z,29.25
2022-12-03T13:40:36.145Z,29.03
2022-12-03T13:43:44.399Z,24.40
2022-12-03T13:46:46.926Z,25.00
2022-12-03T13:49:53.638Z,34.85
2022-12-03T13:52:56.180Z,29.85
2022-12-03T13:56:27.786Z,21.75
2022-12-03T13:59:29.312Z,27.98
2022-12-03T14:02:30.903Z,28.90
2022-12-03T14:05:32.601Z,29.00
2022-12-03T14:08:34.223Z,26.73
2022-12-03T14:11:55.506Z,27.40
2022-12-03T14:14:57.457Z,28.30
2022-12-03T14:17:59.085Z,28.35
2022-12-03T14:21:00.594Z,27.60
2022-12-03T14:24:02.136Z,29.02
2022-12-03T14:27:03.777Z,26.65
2022-12-03T14:30:05.950Z,25.95
2022-12-03T14:33:14.744Z,27.70
2022-12-03T14:36:16.928Z,24.30
2022-12-03T14:39:18.489Z,30.67
2022-12-03T14:42:20.020Z,30.07
2022-12-03T14:45:22.944Z,30.15
2022-12-03T14:48:24.597Z,28.67
2022-12-03T14:51:26.168Z,28.90
2022-12-03T14:54:28.023Z,28.17
2022-12-03T14:57:29.555Z,35.53
2022-12-03T15:00:31.113Z,29.63
2022-12-03T15:03:32.656Z,29.17
2022-12-03T15:06:34.221Z,32.38
2022-12-03T15:09:35.788Z,34.22
2022-12-03T15:12:37.477Z,29.33
2022-12-03T15:15:39.047Z,35.92
2022-12-03T15:18:40.579Z,30.48
2022-12-03T15:21:42.175Z,31.77
2022-12-03T15:24:43.748Z,29.20
2022-12-03T15:27:45.288Z,33.72
2022-12-03T15:30:46.830Z,26.88
2022-12-03T15:33:48.555Z,28.05
2022-12-03T15:36:51.150Z,26.83
2022-12-03T15:39:52.686Z,28.77
2022-12-03T15:42:54.560Z,32.95
2022-12-03T15:45:56.139Z,37.17
2022-12-03T15:48:57.900Z,33.72
2022-12-03T15:51:59.454Z,36.72
2022-12-03T15:55:01.548Z,37.47
2022-12-03T15:58:03.061Z,38.40
2022-12-03T16:01:08.575Z,33.70
2022-12-03T16:04:10.199Z,32.10
2022-12-03T16:07:11.835Z,30.70
2022-12-03T16:10:14.103Z,29.63
2022-12-03T16:13:15.691Z,29.70
2022-12-03T16:16:17.382Z,32.73
2022-12-03T16:19:18.999Z,33.83
2022-12-03T16:22:20.628Z,29.42
2022-12-03T16:25:22.190Z,31.00
2022-12-03T16:28:23.774Z,35.38
2022-12-03T16:31:25.466Z,34.17
2022-12-03T16:34:27.201Z,33.28
2022-12-03T16:37:28.733Z,30.75
2022-12-03T16:40:30.311Z,35.25
2022-12-03T16:43:34.228Z,37.22
2022-12-03T16:46:35.793Z,32.23
2022-12-03T16:49:37.557Z,28.17
2022-12-03T16:52:39.071Z,29.83
2022-12-03T16:55:40.948Z,25.83
2022-12-03T16:58:42.894Z,30.17
2022-12-03T17:01:44.541Z,26.63
2022-12-03T17:04:46.188Z,27.88
2022-12-03T17:07:49.109Z,27.77
2022-12-03T17:10:50.783Z,26.27
2022-12-03T17:13:52.386Z,28.50
2022-12-03T17:16:53.920Z,31.03
2022-12-03T17:19:55.638Z,28.05
2022-12-03T17:22:58.298Z,27.38
2022-12-03T17:25:59.834Z,23.13
2022-12-03T17:29:01.405Z,28.10
2022-12-03T17:32:03.219Z,27.30
2022-12-03T17:35:05.154Z,30.65
2022-12-03T17:38:06.791Z,26.40
2022-12-03T17:41:08.642Z,33.78
2022-12-03T17:44:12.969Z,31.73
2022-12-03T17:47:16.802Z,31.27
2022-12-03T17:50:18.446Z,30.95
2022-12-03T17:53:19.988Z,30.40
2022-12-03T17:56:21.614Z,29.07
2022-12-03T17:59:23.171Z,31.95
2022-12-03T18:02:24.690Z,28.98
2022-12-03T18:05:26.294Z,26.75
2022-12-03T18:08:27.956Z,28.05
2022-12-03T18:11:29.686Z,30.05
2022-12-03T18:14:31.220Z,30.40
2022-12-03T18:17:32.776Z,29.97
2022-12-03T18:20:34.402Z,31.77
2022-12-03T18:23:36.059Z,32.55
2022-12-03T18:26:37.897Z,31.03
2022-12-03T18:29:39.453Z,29.02
2022-12-03T18:32:41.045Z,31.20
2022-12-03T18:35:43.204Z,31.27
2022-12-03T18:38:44.862Z,37.28
2022-12-03T18:41:46.625Z,41.90
2022-12-03T18:44:50.245Z,40.63
2022-12-03T18:47:51.909Z,55.73
2022-12-03T18:50:54.691Z,37.50
2022-12-03T18:53:56.217Z,41.63
2022-12-03T18:56:57.880Z,36.40
2022-12-03T18:59:59.602Z,36.97
2022-12-03T19:03:05.349Z,36.05
2022-12-03T19:06:17.205Z,29.75
2022-12-03T19:09:20.509Z,30.42
2022-12-03T19:12:22.183Z,29.85
2022-12-03T19:15:24.053Z,33.90
2022-12-03T19:18:25.700Z,29.20
2022-12-03T19:21:33.357Z,29.77
2022-12-03T19:24:35.417Z,33.22
2022-12-03T19:27:36.953Z,27.17
2022-12-03T19:30:38.507Z,31.40
2022-12-03T19:33:42.307Z,24.65
2022-12-03T19:36:43.925Z,29.52
2022-12-03T19:39:45.752Z,25.85
2022-12-03T19:42:47.293Z,32.17
2022-12-03T19:45:48.902Z,26.27
2022-12-03T19:48:50.552Z,25.50
2022-12-03T19:51:52.134Z,31.60
2022-12-03T19:54:53.741Z,24.38
2022-12-03T19:57:55.295Z,28.73
2022-12-03T20:00:57.645Z,25.35
2022-12-03T20:04:00.896Z,26.70
2022-12-03T20:07:02.516Z,28.17
2022-12-03T20:10:04.649Z,26.42
2022-12-03T20:13:08.111Z,28.42
2022-12-03T20:16:13.377Z,25.80
2022-12-03T20:19:16.439Z,25.57
2022-12-03T20:22:17.937Z,23.38
2022-12-03T20:25:19.496Z,26.05
2022-12-03T20:28:21.097Z,24.47
2022-12-03T20:31:24.705Z,26.38
2022-12-03T20:34:26.325Z,29.67
2022-12-03T20:37:27.823Z,24.92
2022-12-03T20:40:29.434Z,26.77
2022-12-03T20:43:31.154Z,24.88
2022-12-03T20:46:32.921Z,24.58
2022-12-03T20:49:35.243Z,26.67
2022-12-03T20:52:36.932Z,25.17
2022-12-03T20:55:38.676Z,27.48
2022-12-03T20:58:40.151Z,27.70
2022-12-03T21:01:42.937Z,23.25
2022-12-03T21:04:44.621Z,25.67
2022-12-03T21:07:52.387Z,24.65
2022-12-03T21:10:54.049Z,24.58
2022-12-03T21:13:55.945Z,23.67
2022-12-03T21:17:08.280Z,24.20
2022-12-03T21:20:10.823Z,25.40
2022-12-03T21:23:14.035Z,27.08
2022-12-03T21:26:21.081Z,27.13
2022-12-03T21:29:23.422Z,26.10
2022-12-03T21:32:25.129Z,27.58
2022-12-03T21:35:26.662Z,27.40
2022-12-03T21:38:29.575Z,28.58
2022-12-03T21:41:31.896Z,30.77
2022-12-03T21:44:35.023Z,26.10
2022-12-03T21:47:37.662Z,27.83
2022-12-03T21:50:39.390Z,27.57
2022-12-03T21:53:43.621Z,26.33
2022-12-03T21:56:45.391Z,24.45
2022-12-03T21:59:46.980Z,29.20
2022-12-03T22:02:48.582Z,24.33
2022-12-03T22:05:50.499Z,27.90
2022-12-03T22:08:52.129Z,28.27
2022-12-03T22:11:56.740Z,24.75
2022-12-03T22:14:58.348Z,27.40
2022-12-03T22:18:00.077Z,27.38
2022-12-03T22:21:10.976Z,26.70
2022-12-03T22:24:13.094Z,28.67
2022-12-03T22:27:14.747Z,25.60
2022-12-03T22:30:16.470Z,30.77
2022-12-03T22:33:18.039Z,26.52
2022-12-03T22:36:21.415Z,23.73
2022-12-03T22:39:23.361Z,27.25
2022-12-03T22:42:24.939Z,27.88
2022-12-03T22:45:26.503Z,26.58
2022-12-03T22:48:28.256Z,22.85
2022-12-03T22:51:30.480Z,24.70
2022-12-03T22:54:32.009Z,25.67
2022-12-03T22:57:33.596Z,24.83
2022-12-03T23:00:37.947Z,25.10
2022-12-03T23:03:39.545Z,28.13
2022-12-03T23:06:41.336Z,25.63
2022-12-03T23:09:42.930Z,25.00
2022-12-03T23:12:44.459Z,23.15
2022-12-03T23:15:51.488Z,26.88
2022-12-03T23:18:53.291Z,30.00
2022-12-03T23:21:54.815Z,22.60
2022-12-03T23:24:56.393Z,28.33
2022-12-03T23:27:57.949Z,25.52
2022-12-03T23:31:02.899Z,25.30
2022-12-03T23:34:04.713Z,25.60
2022-12-03T23:37:06.350Z,25.10
2022-12-03T23:40:08.261Z,24.08
2022-12-03T23:43:09.913Z,29.85
2022-12-03T23:46:16.138Z,27.48
2022-12-03T23:49:17.706Z,25.38
2022-12-03T23:52:19.237Z,33.57
2022-12-03T23:55:21.164Z,28.45
2022-12-03T23:58:22.738Z,25.88
